sensor_id;sensor_type;location;lat;lon;timestamp;pressure;altitude;pressure_sealevel;temperature;humidity
17373;BME280;8803;48.116;11.590;2022-08-04T00:00:25;95521.59;;;25.53;93.18
17373;BME280;8803;48.116;11.590;2022-08-04T00:02:37;95522.53;;;25.47;91.32
17373;BME280;8803;48.116;11.590;2022-08-04T00:04:44;95523.58;;;25.46;92.99
17373;BME280;8803;48.116;11.590;2022-08-04T00:06:54;95517.84;;;25.45;93.79
17373;BME280;8803;48.116;11.590;2022-08-04T00:11:14;95521.61;;;25.44;93.55
17373;BME280;8803;48.116;11.590;2022-08-04T00:15:34;95512.20;;;25.40;94.10
17373;BME280;8803;48.116;11.590;2022-08-04T00:19:55;95521.16;;;25.38;93.55
17373;BME280;8803;48.116;11.590;2022-08-04T00:22:02;95518.23;;;25.30;94.69
17373;BME280;8803;48.116;11.590;2022-08-04T00:26:20;95524.42;;;25.28;92.35
17373;BME280;8803;48.116;11.590;2022-08-04T00:30:41;95523.94;;;25.20;92.72
17373;BME280;8803;48.116;11.590;2022-08-04T00:32:45;95517.85;;;25.18;91.92
17373;BME280;8803;48.116;11.590;2022-08-04T00:34:50;95517.85;;;25.18;91.92
17373;BME280;8803;48.116;11.590;2022-08-04T00:36:55;95529.39;;;25.20;91.28
17373;BME280;8803;48.116;11.590;2022-08-04T00:39:00;95527.39;;;25.18;91.02
17373;BME280;8803;48.116;11.590;2022-08-04T00:43:23;95520.05;;;25.18;90.64
17373;BME280;8803;48.116;11.590;2022-08-04T00:45:47;95525.07;;;25.12;91.83
17373;BME280;8803;48.116;11.590;2022-08-04T00:50:11;95519.62;;;25.12;91.12
17373;BME280;8803;48.116;11.590;2022-08-04T00:54:40;95509.13;;;24.97;88.52
17373;BME280;8803;48.116;11.590;2022-08-04T00:59:09;95520.18;;;25.02;90.30
17373;BME280;8803;48.116;11.590;2022-08-04T01:01:18;95518.91;;;24.96;89.00
17373;BME280;8803;48.116;11.590;2022-08-04T01:05:46;95518.06;;;24.95;89.07
17373;BME280;8803;48.116;11.590;2022-08-04T01:10:15;95512.45;;;24.90;85.24
17373;BME280;8803;48.116;11.590;2022-08-04T01:14:49;95516.66;;;24.84;89.00
17373;BME280;8803;48.116;11.590;2022-08-04T01:19:07;95513.77;;;24.79;87.96
17373;BME280;8803;48.116;11.590;2022-08-04T01:23:50;95521.14;;;24.72;87.82
17373;BME280;8803;48.116;11.590;2022-08-04T01:31:18;95515.25;;;24.66;85.64
17373;BME280;8803;48.116;11.590;2022-08-04T01:33:23;95524.33;;;24.60;86.51
17373;BME280;8803;48.116;11.590;2022-08-04T01:35:32;95519.04;;;24.56;86.45
17373;BME280;8803;48.116;11.590;2022-08-04T01:40:03;95525.61;;;24.57;86.46
17373;BME280;8803;48.116;11.590;2022-08-04T01:44:24;95521.68;;;24.53;86.49
17373;BME280;8803;48.116;11.590;2022-08-04T01:46:30;95520.39;;;24.47;84.84
17373;BME280;8803;48.116;11.590;2022-08-04T01:50:48;95524.70;;;24.45;85.13
17373;BME280;8803;48.116;11.590;2022-08-04T01:52:54;95524.77;;;24.39;84.47
17373;BME280;8803;48.116;11.590;2022-08-04T01:55:00;95525.20;;;24.36;82.31
17373;BME280;8803;48.116;11.590;2022-08-04T01:59:20;95519.24;;;24.36;82.66
17373;BME280;8803;48.116;11.590;2022-08-04T02:01:25;95520.15;;;24.30;83.07
17373;BME280;8803;48.116;11.590;2022-08-04T02:03:29;95529.39;;;24.29;82.30
17373;BME280;8803;48.116;11.590;2022-08-04T02:05:33;95524.70;;;24.27;81.40
17373;BME280;8803;48.116;11.590;2022-08-04T02:12:23;95521.22;;;24.29;80.39
17373;BME280;8803;48.116;11.590;2022-08-04T02:14:30;95531.41;;;24.24;78.41
17373;BME280;8803;48.116;11.590;2022-08-04T02:19:06;95521.05;;;24.24;80.89
17373;BME280;8803;48.116;11.590;2022-08-04T02:21:09;95525.20;;;24.17;80.22
17373;BME280;8803;48.116;11.590;2022-08-04T02:25:33;95521.58;;;24.14;78.72
17373;BME280;8803;48.116;11.590;2022-08-04T02:29:56;95519.81;;;24.11;80.39
17373;BME280;8803;48.116;11.590;2022-08-04T02:34:15;95525.72;;;24.08;79.72
17373;BME280;8803;48.116;11.590;2022-08-04T02:36:23;95526.87;;;24.03;79.58
17373;BME280;8803;48.116;11.590;2022-08-04T02:43:01;95527.71;;;24.03;78.10
17373;BME280;8803;48.116;11.590;2022-08-04T02:45:08;95532.23;;;24.00;77.11
17373;BME280;8803;48.116;11.590;2022-08-04T02:49:26;95520.50;;;24.00;78.39
17373;BME280;8803;48.116;11.590;2022-08-04T02:51:33;95524.96;;;23.94;77.89
17373;BME280;8803;48.116;11.590;2022-08-04T02:53:37;95526.23;;;23.92;77.20
17373;BME280;8803;48.116;11.590;2022-08-04T02:55:44;95520.19;;;23.90;76.21
17373;BME280;8803;48.116;11.590;2022-08-04T02:57:49;95520.19;;;23.90;77.03
17373;BME280;8803;48.116;11.590;2022-08-04T03:02:27;95515.35;;;23.92;76.60
17373;BME280;8803;48.116;11.590;2022-08-04T03:07:48;95513.09;;;23.89;76.45
17373;BME280;8803;48.116;11.590;2022-08-04T03:15:46;95512.69;;;23.85;75.82
17373;BME280;8803;48.116;11.590;2022-08-04T03:31:00;95512.88;;;23.66;75.67
17373;BME280;8803;48.116;11.590;2022-08-04T03:36:15;95509.63;;;23.66;75.06
17373;BME280;8803;48.116;11.590;2022-08-04T03:41:07;95512.45;;;23.62;75.73
17373;BME280;8803;48.116;11.590;2022-08-04T03:43:34;95511.17;;;23.56;73.95
17373;BME280;8803;48.116;11.590;2022-08-04T03:51:19;95521.34;;;23.51;74.40
17373;BME280;8803;48.116;11.590;2022-08-04T03:56:37;95510.16;;;23.50;74.52
17373;BME280;8803;48.116;11.590;2022-08-04T04:01:37;95511.52;;;23.50;73.89
17373;BME280;8803;48.116;11.590;2022-08-04T04:06:39;95517.17;;;23.48;71.57
17373;BME280;8803;48.116;11.590;2022-08-04T04:14:17;95524.86;;;23.42;71.61
17373;BME280;8803;48.116;11.590;2022-08-04T04:24:10;95515.81;;;23.48;73.19
17373;BME280;8803;48.116;11.590;2022-08-04T04:26:36;95525.70;;;23.43;72.72
17373;BME280;8803;48.116;11.590;2022-08-04T04:31:33;95522.91;;;23.49;72.02
17373;BME280;8803;48.116;11.590;2022-08-04T04:36:02;95521.03;;;23.50;71.74
17373;BME280;8803;48.116;11.590;2022-08-04T04:40:33;95519.44;;;23.51;72.06
17373;BME280;8803;48.116;11.590;2022-08-04T04:42:56;95522.09;;;23.49;71.03
17373;BME280;8803;48.116;11.590;2022-08-04T04:45:23;95525.10;;;23.50;70.75
17373;BME280;8803;48.116;11.590;2022-08-04T04:49:45;95524.83;;;23.58;72.00
17373;BME280;8803;48.116;11.590;2022-08-04T04:51:54;95530.50;;;23.57;71.65
17373;BME280;8803;48.116;11.590;2022-08-04T04:54:00;95536.86;;;23.60;71.53
17373;BME280;8803;48.116;11.590;2022-08-04T04:58:22;95536.50;;;23.81;71.38
17373;BME280;8803;48.116;11.590;2022-08-04T05:10:47;95537.20;;;25.66;63.33
17373;BME280;8803;48.116;11.590;2022-08-04T05:15:12;95527.49;;;26.35;61.77
17373;BME280;8803;48.116;11.590;2022-08-04T05:19:41;95530.60;;;27.27;57.90
17373;BME280;8803;48.116;11.590;2022-08-04T05:24:00;95532.52;;;28.13;54.53
17373;BME280;8803;48.116;11.590;2022-08-04T05:26:06;95528.09;;;28.29;52.99
17373;BME280;8803;48.116;11.590;2022-08-04T05:30:28;95529.92;;;28.57;53.01
17373;BME280;8803;48.116;11.590;2022-08-04T05:34:54;95528.08;;;28.46;53.55
17373;BME280;8803;48.116;11.590;2022-08-04T05:36:59;95526.69;;;28.43;53.52
17373;BME280;8803;48.116;11.590;2022-08-04T05:41:16;95522.36;;;29.48;48.83
17373;BME280;8803;48.116;11.590;2022-08-04T05:43:23;95528.45;;;30.06;46.96
17373;BME280;8803;48.116;11.590;2022-08-04T05:45:28;95524.20;;;30.57;45.14
17373;BME280;8803;48.116;11.590;2022-08-04T05:49:46;95518.79;;;30.69;45.04
17373;BME280;8803;48.116;11.590;2022-08-04T05:51:51;95522.23;;;30.47;45.01
17373;BME280;8803;48.116;11.590;2022-08-04T05:53:55;95520.69;;;30.29;46.37
17373;BME280;8803;48.116;11.590;2022-08-04T05:58:15;95515.08;;;30.88;44.42
17373;BME280;8803;48.116;11.590;2022-08-04T06:00:20;95518.16;;;31.58;41.83
17373;BME280;8803;48.116;11.590;2022-08-04T06:04:50;95504.78;;;32.20;40.64
17373;BME280;8803;48.116;11.590;2022-08-04T06:09:07;95512.75;;;31.96;41.12
17373;BME280;8803;48.116;11.590;2022-08-04T06:11:14;95514.34;;;31.87;40.93
17373;BME280;8803;48.116;11.590;2022-08-04T06:15:35;95512.20;;;32.07;40.31
17373;BME280;8803;48.116;11.590;2022-08-04T06:19:56;95513.88;;;32.30;39.96
17373;BME280;8803;48.116;11.590;2022-08-04T06:22:03;95520.19;;;32.31;39.56
17373;BME280;8803;48.116;11.590;2022-08-04T06:24:10;95522.95;;;32.33;39.49
17373;BME280;8803;48.116;11.590;2022-08-04T06:28:29;95522.98;;;32.51;40.27
17373;BME280;8803;48.116;11.590;2022-08-04T06:33:00;95521.56;;;32.71;40.19
17373;BME280;8803;48.116;11.590;2022-08-04T06:37:23;95520.16;;;32.99;38.97
17373;BME280;8803;48.116;11.590;2022-08-04T06:41:39;95514.50;;;33.34;38.97
17373;BME280;8803;48.116;11.590;2022-08-04T06:43:44;95517.73;;;33.48;38.77
17373;BME280;8803;48.116;11.590;2022-08-04T06:45:49;95510.48;;;33.68;38.44
17373;BME280;8803;48.116;11.590;2022-08-04T06:50:09;95504.72;;;34.10;38.00
17373;BME280;8803;48.116;11.590;2022-08-04T06:52:14;95514.53;;;34.27;37.33
17373;BME280;8803;48.116;11.590;2022-08-04T06:54:19;95512.69;;;34.48;37.18
17373;BME280;8803;48.116;11.590;2022-08-04T06:56:24;95520.02;;;34.68;36.70
17373;BME280;8803;48.116;11.590;2022-08-04T07:00:46;95509.36;;;35.09;35.92
17373;BME280;8803;48.116;11.590;2022-08-04T07:02:51;95509.80;;;35.21;35.28
17373;BME280;8803;48.116;11.590;2022-08-04T07:04:55;95513.19;;;35.36;35.15
17373;BME280;8803;48.116;11.590;2022-08-04T07:09:13;95506.59;;;35.77;35.10
17373;BME280;8803;48.116;11.590;2022-08-04T07:11:17;95507.76;;;35.92;34.98
17373;BME280;8803;48.116;11.590;2022-08-04T07:13:22;95506.98;;;36.08;34.84
17373;BME280;8803;48.116;11.590;2022-08-04T07:15:26;95510.31;;;36.26;34.76
17373;BME280;8803;48.116;11.590;2022-08-04T07:19:46;95504.95;;;36.64;34.13
17373;BME280;8803;48.116;11.590;2022-08-04T07:21:51;95508.61;;;36.78;34.02
17373;BME280;8803;48.116;11.590;2022-08-04T07:23:54;95511.03;;;36.98;33.87
17373;BME280;8803;48.116;11.590;2022-08-04T07:25:58;95506.84;;;37.14;33.66
17373;BME280;8803;48.116;11.590;2022-08-04T07:30:15;95505.83;;;37.51;33.10
17373;BME280;8803;48.116;11.590;2022-08-04T07:32:21;95505.04;;;37.62;32.49
17373;BME280;8803;48.116;11.590;2022-08-04T07:34:26;95505.16;;;37.84;32.19
17373;BME280;8803;48.116;11.590;2022-08-04T07:36:30;95503.34;;;38.02;31.50
17373;BME280;8803;48.116;11.590;2022-08-04T07:40:49;95504.55;;;38.34;30.97
17373;BME280;8803;48.116;11.590;2022-08-04T07:45:08;95511.69;;;38.37;30.62
17373;BME280;8803;48.116;11.590;2022-08-04T07:49:26;95504.37;;;38.30;30.50
17373;BME280;8803;48.116;11.590;2022-08-04T07:51:30;95505.49;;;38.29;30.52
17373;BME280;8803;48.116;11.590;2022-08-04T07:53:35;95501.83;;;38.31;30.09
17373;BME280;8803;48.116;11.590;2022-08-04T07:57:51;95498.54;;;38.29;30.50
17373;BME280;8803;48.116;11.590;2022-08-04T08:02:08;95490.20;;;38.40;30.87
17373;BME280;8803;48.116;11.590;2022-08-04T08:04:14;95495.38;;;38.33;29.45
17373;BME280;8803;48.116;11.590;2022-08-04T08:08:31;95498.36;;;38.26;29.62
17373;BME280;8803;48.116;11.590;2022-08-04T08:12:48;95496.37;;;38.26;30.09
17373;BME280;8803;48.116;11.590;2022-08-04T08:14:53;95503.67;;;38.22;29.59
17373;BME280;8803;48.116;11.590;2022-08-04T08:16:58;95501.14;;;38.26;30.05
17373;BME280;8803;48.116;11.590;2022-08-04T08:21:14;95499.17;;;38.37;30.45
17373;BME280;8803;48.116;11.590;2022-08-04T08:23:20;95499.05;;;38.31;29.92
17373;BME280;8803;48.116;11.590;2022-08-04T08:25:25;95498.27;;;38.28;30.14
17373;BME280;8803;48.116;11.590;2022-08-04T08:27:29;95505.16;;;38.20;29.83
17373;BME280;8803;48.116;11.590;2022-08-04T08:31:48;95504.61;;;38.18;30.04
17373;BME280;8803;48.116;11.590;2022-08-04T08:36:08;95499.95;;;38.05;29.77
17373;BME280;8803;48.116;11.590;2022-08-04T08:42:59;95494.97;;;37.79;30.30
17373;BME280;8803;48.116;11.590;2022-08-04T08:50:16;95493.80;;;37.12;29.74
17373;BME280;8803;48.116;11.590;2022-08-04T08:55:19;95491.27;;;37.00;30.77
17373;BME280;8803;48.116;11.590;2022-08-04T09:00:07;95498.66;;;36.75;30.80
17373;BME280;8803;48.116;11.590;2022-08-04T09:05:09;95499.25;;;36.42;31.82
17373;BME280;8803;48.116;11.590;2022-08-04T09:10:09;95497.49;;;36.30;32.10
17373;BME280;8803;48.116;11.590;2022-08-04T09:12:21;95503.03;;;36.30;32.18
17373;BME280;8803;48.116;11.590;2022-08-04T09:14:25;95500.02;;;36.26;31.97
17373;BME280;8803;48.116;11.590;2022-08-04T09:18:51;95491.84;;;36.19;31.12
17373;BME280;8803;48.116;11.590;2022-08-04T09:20:59;95502.41;;;36.17;31.23
17373;BME280;8803;48.116;11.590;2022-08-04T09:25:33;95495.17;;;36.18;31.36
17373;BME280;8803;48.116;11.590;2022-08-04T09:27:40;95496.34;;;36.15;31.30
17373;BME280;8803;48.116;11.590;2022-08-04T09:29:46;95499.08;;;36.17;31.42
17373;BME280;8803;48.116;11.590;2022-08-04T09:31:56;95494.27;;;36.07;31.37
17373;BME280;8803;48.116;11.590;2022-08-04T09:34:07;95493.59;;;35.96;30.94
17373;BME280;8803;48.116;11.590;2022-08-04T09:36:14;95488.97;;;35.87;31.14
17373;BME280;8803;48.116;11.590;2022-08-04T09:40:39;95490.15;;;35.83;31.66
17373;BME280;8803;48.116;11.590;2022-08-04T09:45:02;95489.16;;;35.74;31.37
17373;BME280;8803;48.116;11.590;2022-08-04T09:49:26;95490.70;;;35.64;31.52
17373;BME280;8803;48.116;11.590;2022-08-04T09:51:42;95496.08;;;35.55;31.40
17373;BME280;8803;48.116;11.590;2022-08-04T09:56:13;95481.50;;;35.45;31.69
17373;BME280;8803;48.116;11.590;2022-08-04T09:58:21;95475.97;;;35.45;31.51
17373;BME280;8803;48.116;11.590;2022-08-04T10:02:43;95475.41;;;35.45;30.88
17373;BME280;8803;48.116;11.590;2022-08-04T10:04:48;95475.88;;;35.31;30.09
17373;BME280;8803;48.116;11.590;2022-08-04T10:09:29;95476.35;;;35.36;30.74
17373;BME280;8803;48.116;11.590;2022-08-04T10:11:43;95476.74;;;35.29;30.79
17373;BME280;8803;48.116;11.590;2022-08-04T10:16:19;95473.14;;;35.29;30.78
17373;BME280;8803;48.116;11.590;2022-08-04T10:20:50;95478.16;;;35.27;30.27
17373;BME280;8803;48.116;11.590;2022-08-04T10:22:59;95480.73;;;35.21;29.79
17373;BME280;8803;48.116;11.590;2022-08-04T10:27:23;95464.72;;;35.15;29.16
17373;BME280;8803;48.116;11.590;2022-08-04T10:34:02;95470.13;;;35.04;29.08
17373;BME280;8803;48.116;11.590;2022-08-04T10:36:09;95474.34;;;34.99;29.07
17373;BME280;8803;48.116;11.590;2022-08-04T10:38:29;95470.45;;;34.98;29.26
17373;BME280;8803;48.116;11.590;2022-08-04T10:42:38;95463.56;;;34.95;29.24
17373;BME280;8803;48.116;11.590;2022-08-04T10:44:50;95465.61;;;34.84;29.78
17373;BME280;8803;48.116;11.590;2022-08-04T10:46:57;95463.72;;;34.80;29.70
17373;BME280;8803;48.116;11.590;2022-08-04T10:51:20;95469.23;;;34.82;30.14
17373;BME280;8803;48.116;11.590;2022-08-04T10:55:41;95462.97;;;34.74;30.00
17373;BME280;8803;48.116;11.590;2022-08-04T10:57:49;95458.35;;;34.65;29.83
17373;BME280;8803;48.116;11.590;2022-08-04T11:02:16;95455.77;;;34.45;29.49
17373;BME280;8803;48.116;11.590;2022-08-04T11:06:34;95456.89;;;34.41;30.12
17373;BME280;8803;48.116;11.590;2022-08-04T11:10:58;95444.00;;;34.32;30.41
17373;BME280;8803;48.116;11.590;2022-08-04T11:15:20;95445.78;;;34.20;30.18
17373;BME280;8803;48.116;11.590;2022-08-04T11:19:43;95451.36;;;34.12;29.94
17373;BME280;8803;48.116;11.590;2022-08-04T11:21:51;95449.47;;;34.05;29.92
17373;BME280;8803;48.116;11.590;2022-08-04T11:26:14;95448.70;;;34.00;30.27
17373;BME280;8803;48.116;11.590;2022-08-04T11:30:39;95440.46;;;33.90;30.21
17373;BME280;8803;48.116;11.590;2022-08-04T11:32:50;95447.41;;;33.82;29.94
17373;BME280;8803;48.116;11.590;2022-08-04T11:37:10;95443.08;;;33.74;30.44
17373;BME280;8803;48.116;11.590;2022-08-04T11:39:14;95446.47;;;33.63;30.28
17373;BME280;8803;48.116;11.590;2022-08-04T11:43:35;95442.06;;;33.57;30.40
17373;BME280;8803;48.116;11.590;2022-08-04T11:45:46;95436.59;;;33.44;30.00
17373;BME280;8803;48.116;11.590;2022-08-04T11:47:53;95443.78;;;33.43;30.74
17373;BME280;8803;48.116;11.590;2022-08-04T11:50:03;95447.69;;;33.37;30.44
17373;BME280;8803;48.116;11.590;2022-08-04T11:54:21;95442.47;;;33.33;30.66
17373;BME280;8803;48.116;11.590;2022-08-04T11:56:26;95441.39;;;33.26;30.61
17373;BME280;8803;48.116;11.590;2022-08-04T12:00:52;95441.95;;;33.23;30.64
17373;BME280;8803;48.116;11.590;2022-08-04T12:03:17;95442.83;;;33.16;30.67
17373;BME280;8803;48.116;11.590;2022-08-04T12:05:24;95442.01;;;33.13;30.81
17373;BME280;8803;48.116;11.590;2022-08-04T12:09:55;95440.09;;;33.09;30.63
17373;BME280;8803;48.116;11.590;2022-08-04T12:14:27;95437.91;;;33.08;31.73
17373;BME280;8803;48.116;11.590;2022-08-04T12:18:49;95426.89;;;33.01;31.11
17373;BME280;8803;48.116;11.590;2022-08-04T12:20:59;95434.34;;;32.95;30.87
17373;BME280;8803;48.116;11.590;2022-08-04T12:25:17;95425.23;;;32.92;30.90
17373;BME280;8803;48.116;11.590;2022-08-04T12:27:24;95430.25;;;32.85;30.83
17373;BME280;8803;48.116;11.590;2022-08-04T12:31:44;95424.48;;;32.74;30.91
17373;BME280;8803;48.116;11.590;2022-08-04T12:36:16;95424.73;;;32.83;31.30
17373;BME280;8803;48.116;11.590;2022-08-04T12:42:52;95429.13;;;32.84;32.68
17373;BME280;8803;48.116;11.590;2022-08-04T12:44:59;95426.13;;;32.78;32.20
17373;BME280;8803;48.116;11.590;2022-08-04T12:47:07;95423.11;;;32.77;32.18
17373;BME280;8803;48.116;11.590;2022-08-04T12:49:11;95418.97;;;32.77;32.16
17373;BME280;8803;48.116;11.590;2022-08-04T12:55:47;95423.36;;;32.80;31.90
17373;BME280;8803;48.116;11.590;2022-08-04T13:00:08;95414.25;;;32.80;31.76
17373;BME280;8803;48.116;11.590;2022-08-04T13:02:15;95411.79;;;32.76;31.87
17373;BME280;8803;48.116;11.590;2022-08-04T13:04:21;95414.55;;;32.76;31.85
17373;BME280;8803;48.116;11.590;2022-08-04T13:08:42;95405.98;;;32.77;32.43
17373;BME280;8803;48.116;11.590;2022-08-04T13:10:49;95406.56;;;32.74;32.16
17373;BME280;8803;48.116;11.590;2022-08-04T13:12:57;95408.48;;;32.74;32.55
17373;BME280;8803;48.116;11.590;2022-08-04T13:17:19;95401.59;;;32.74;32.19
17373;BME280;8803;48.116;11.590;2022-08-04T13:19:23;95406.86;;;32.70;31.89
17373;BME280;8803;48.116;11.590;2022-08-04T13:23:44;95402.97;;;32.76;32.88
17373;BME280;8803;48.116;11.590;2022-08-04T13:28:05;95395.83;;;32.70;31.80
17373;BME280;8803;48.116;11.590;2022-08-04T13:32:25;95393.91;;;32.63;32.02
17373;BME280;8803;48.116;11.590;2022-08-04T13:34:31;95397.55;;;32.51;31.20
17373;BME280;8803;48.116;11.590;2022-08-04T13:36:37;95391.73;;;32.55;31.26
17373;BME280;8803;48.116;11.590;2022-08-04T13:41:05;95385.67;;;32.55;31.49
17373;BME280;8803;48.116;11.590;2022-08-04T13:43:12;95382.92;;;32.53;31.21
17373;BME280;8803;48.116;11.590;2022-08-04T13:47:32;95381.80;;;32.59;31.23
17373;BME280;8803;48.116;11.590;2022-08-04T13:51:52;95375.45;;;32.61;32.16
17373;BME280;8803;48.116;11.590;2022-08-04T13:56:13;95371.84;;;32.63;31.92
17373;BME280;8803;48.116;11.590;2022-08-04T14:00:43;95365.24;;;32.64;31.98
17373;BME280;8803;48.116;11.590;2022-08-04T14:02:49;95368.26;;;32.62;32.98
17373;BME280;8803;48.116;11.590;2022-08-04T14:04:56;95372.14;;;32.61;33.22
17373;BME280;8803;48.116;11.590;2022-08-04T14:09:19;95366.05;;;32.64;32.80
17373;BME280;8803;48.116;11.590;2022-08-04T14:11:33;95364.41;;;32.61;32.61
17373;BME280;8803;48.116;11.590;2022-08-04T14:13:37;95367.72;;;32.63;32.52
17373;BME280;8803;48.116;11.590;2022-08-04T14:15:42;95362.20;;;32.63;32.49
17373;BME280;8803;48.116;11.590;2022-08-04T14:19:59;95355.30;;;32.65;32.69
17373;BME280;8803;48.116;11.590;2022-08-04T14:22:03;95358.06;;;32.60;32.65
17373;BME280;8803;48.116;11.590;2022-08-04T14:24:07;95353.93;;;32.60;33.34
17373;BME280;8803;48.116;11.590;2022-08-04T14:26:23;95354.51;;;32.60;32.91
17373;BME280;8803;48.116;11.590;2022-08-04T14:30:40;95349.78;;;32.65;33.01
17373;BME280;8803;48.116;11.590;2022-08-04T14:32:59;95347.61;;;32.60;32.76
17373;BME280;8803;48.116;11.590;2022-08-04T14:35:11;95352.55;;;32.60;32.65
17373;BME280;8803;48.116;11.590;2022-08-04T14:39:39;95355.59;;;32.61;32.54
17373;BME280;8803;48.116;11.590;2022-08-04T14:41:47;95351.72;;;32.62;32.60
17373;BME280;8803;48.116;11.590;2022-08-04T14:43:54;95353.38;;;32.63;32.56
17373;BME280;8803;48.116;11.590;2022-08-04T14:48:18;95349.23;;;32.66;32.86
17373;BME280;8803;48.116;11.590;2022-08-04T14:52:40;95343.15;;;32.66;32.76
17373;BME280;8803;48.116;11.590;2022-08-04T14:54:44;95345.11;;;32.61;32.56
17373;BME280;8803;48.116;11.590;2022-08-04T14:59:08;95344.58;;;32.56;32.06
17373;BME280;8803;48.116;11.590;2022-08-04T15:03:25;95343.15;;;32.66;32.18
17373;BME280;8803;48.116;11.590;2022-08-04T15:05:31;95343.19;;;32.59;32.09
17373;BME280;8803;48.116;11.590;2022-08-04T15:09:49;95339.58;;;32.68;32.13
17373;BME280;8803;48.116;11.590;2022-08-04T15:11:53;95340.14;;;32.65;32.15
17373;BME280;8803;48.116;11.590;2022-08-04T15:13:58;95343.72;;;32.66;32.31
17373;BME280;8803;48.116;11.590;2022-08-04T15:16:02;95336.83;;;32.66;32.20
17373;BME280;8803;48.116;11.590;2022-08-04T15:20:20;95326.88;;;32.70;32.61
17373;BME280;8803;48.116;11.590;2022-08-04T15:24:37;95325.22;;;32.69;32.90
17373;BME280;8803;48.116;11.590;2022-08-04T15:26:43;95329.11;;;32.65;32.79
17373;BME280;8803;48.116;11.590;2022-08-04T15:31:04;95327.17;;;32.68;32.86
17373;BME280;8803;48.116;11.590;2022-08-04T15:33:09;95320.55;;;32.64;32.80
17373;BME280;8803;48.116;11.590;2022-08-04T15:35:19;95329.66;;;32.65;32.71
17373;BME280;8803;48.116;11.590;2022-08-04T15:39:43;95318.92;;;32.61;31.92
17373;BME280;8803;48.116;11.590;2022-08-04T15:44:35;95309.52;;;32.64;32.04
17373;BME280;8803;48.116;11.590;2022-08-04T15:49:21;95311.19;;;32.60;32.20
17373;BME280;8803;48.116;11.590;2022-08-04T15:54:20;95304.04;;;32.62;31.99
17373;BME280;8803;48.116;11.590;2022-08-04T15:56:42;95312.61;;;32.55;31.70
17373;BME280;8803;48.116;11.590;2022-08-04T16:01:21;95299.08;;;32.59;31.76
17373;BME280;8803;48.116;11.590;2022-08-04T16:05:55;95297.16;;;32.57;31.61
17373;BME280;8803;48.116;11.590;2022-08-04T16:10:36;95292.48;;;32.55;31.59
17373;BME280;8803;48.116;11.590;2022-08-04T16:13:03;95298.01;;;32.50;31.54
17373;BME280;8803;48.116;11.590;2022-08-04T16:15:38;95298.59;;;32.49;32.09
17373;BME280;8803;48.116;11.590;2022-08-04T16:17:42;95294.16;;;32.48;31.78
17373;BME280;8803;48.116;11.590;2022-08-04T16:22:30;95285.34;;;32.49;32.22
17373;BME280;8803;48.116;11.590;2022-08-04T16:24:37;95288.08;;;32.44;32.02
17373;BME280;8803;48.116;11.590;2022-08-04T16:26:46;95289.75;;;32.42;32.02
17373;BME280;8803;48.116;11.590;2022-08-04T16:31:05;95288.38;;;32.42;32.29
17373;BME280;8803;48.116;11.590;2022-08-04T16:33:09;95289.77;;;32.37;32.28
17373;BME280;8803;48.116;11.590;2022-08-04T16:35:21;95296.94;;;32.36;32.39
17373;BME280;8803;48.116;11.590;2022-08-04T16:39:46;95290.59;;;32.38;32.29
17373;BME280;8803;48.116;11.590;2022-08-04T16:41:50;95293.09;;;32.34;32.10
17373;BME280;8803;48.116;11.590;2022-08-04T16:44:02;95293.35;;;32.35;32.06
17373;BME280;8803;48.116;11.590;2022-08-04T16:46:07;95292.27;;;32.36;32.04
17373;BME280;8803;48.116;11.590;2022-08-04T16:50:24;95291.13;;;32.40;32.10
17373;BME280;8803;48.116;11.590;2022-08-04T16:52:28;95291.98;;;32.35;32.04
17373;BME280;8803;48.116;11.590;2022-08-04T16:54:32;95294.73;;;32.35;31.94
17373;BME280;8803;48.116;11.590;2022-08-04T16:56:37;95288.13;;;32.34;31.83
17373;BME280;8803;48.116;11.590;2022-08-04T17:00:54;95280.11;;;32.37;32.24
17373;BME280;8803;48.116;11.590;2022-08-04T17:02:59;95280.16;;;32.32;32.04
17373;BME280;8803;48.116;11.590;2022-08-04T17:05:05;95282.91;;;32.32;31.85
17373;BME280;8803;48.116;11.590;2022-08-04T17:07:10;95279.61;;;32.33;32.39
17373;BME280;8803;48.116;11.590;2022-08-04T17:11:32;95274.64;;;32.35;32.84
17373;BME280;8803;48.116;11.590;2022-08-04T17:13:37;95279.03;;;32.31;32.90
17373;BME280;8803;48.116;11.590;2022-08-04T17:18:15;95275.19;;;32.32;32.51
17373;BME280;8803;48.116;11.590;2022-08-04T17:22:30;95266.38;;;32.30;32.89
17373;BME280;8803;48.116;11.590;2022-08-04T17:24:36;95273.56;;;32.26;33.72
17373;BME280;8803;48.116;11.590;2022-08-04T17:26:42;95274.39;;;32.26;33.54
17373;BME280;8803;48.116;11.590;2022-08-04T17:31:01;95268.05;;;32.23;33.49
17373;BME280;8803;48.116;11.590;2022-08-04T17:33:05;95269.19;;;32.17;33.33
17373;BME280;8803;48.116;11.590;2022-08-04T17:35:09;95272.23;;;32.16;33.23
17373;BME280;8803;48.116;11.590;2022-08-04T17:37:14;95273.32;;;32.15;33.01
17373;BME280;8803;48.116;11.590;2022-08-04T17:41:33;95262.30;;;32.15;33.00
17373;BME280;8803;48.116;11.590;2022-08-04T17:43:44;95271.41;;;32.10;32.73
17373;BME280;8803;48.116;11.590;2022-08-04T17:50:32;95265.34;;;32.11;33.17
17373;BME280;8803;48.116;11.590;2022-08-04T17:52:37;95262.89;;;32.04;33.31
17373;BME280;8803;48.116;11.590;2022-08-04T17:54:41;95267.02;;;32.02;33.50
17373;BME280;8803;48.116;11.590;2022-08-04T18:04:27;95271.44;;;31.98;33.99
17373;BME280;8803;48.116;11.590;2022-08-04T18:06:32;95270.06;;;31.90;33.95
17373;BME280;8803;48.116;11.590;2022-08-04T18:10:48;95264.84;;;31.88;33.86
17373;BME280;8803;48.116;11.590;2022-08-04T18:12:52;95266.77;;;31.83;33.96
17373;BME280;8803;48.116;11.590;2022-08-04T18:14:57;95268.14;;;31.83;34.01
17373;BME280;8803;48.116;11.590;2022-08-04T18:17:01;95273.11;;;31.81;34.15
17373;BME280;8803;48.116;11.590;2022-08-04T18:23:33;95267.88;;;31.77;34.65
17373;BME280;8803;48.116;11.590;2022-08-04T18:25:37;95272.84;;;31.70;34.54
17373;BME280;8803;48.116;11.590;2022-08-04T18:27:48;95278.92;;;31.69;34.60